createdAt,value
2022-09-23T00:00:06.686Z,4.90
2022-09-23T00:01:06.607Z,6.30
2022-09-23T00:02:06.718Z,5.60
2022-09-23T00:03:06.560Z,6.80
2022-09-23T00:04:06.577Z,4.70
2022-09-23T00:05:06.590Z,3.70
2022-09-23T00:06:06.544Z,8.40
2022-09-23T00:07:06.535Z,5.20
2022-09-23T00:08:06.542Z,4.70
2022-09-23T00:09:06.650Z,5.20
2022-09-23T00:10:06.526Z,3.90
2022-09-23T00:11:06.567Z,5.20
2022-09-23T00:12:09.063Z,4.10
2022-09-23T00:13:06.499Z,5.80
2022-09-23T00:14:06.499Z,3.40
2022-09-23T00:15:06.481Z,5.20
2022-09-23T00:16:06.484Z,3.70
2022-09-23T00:17:06.577Z,4.60
2022-09-23T00:18:06.468Z,4.60
2022-09-23T00:19:06.467Z,4.00
2022-09-23T00:20:06.479Z,10.30
2022-09-23T00:21:06.474Z,4.90
2022-09-23T00:22:06.457Z,3.40
2022-09-23T00:23:06.442Z,4.10
2022-09-23T00:24:06.567Z,6.20
2022-09-23T00:25:06.472Z,4.50
2022-09-23T00:26:08.163Z,3.90
2022-09-23T00:27:06.416Z,4.30
2022-09-23T00:28:06.406Z,3.70
2022-09-23T00:29:06.400Z,5.50
2022-09-23T00:30:06.386Z,4.70
2022-09-23T00:31:06.476Z,4.00
2022-09-23T00:32:06.971Z,4.50
2022-09-23T00:33:06.364Z,5.20
2022-09-23T00:34:06.367Z,4.50
2022-09-23T00:35:06.352Z,5.40
2022-09-23T00:36:06.356Z,5.00
2022-09-23T00:37:07.190Z,4.90
2022-09-23T00:38:06.355Z,3.80
2022-09-23T00:39:06.469Z,4.90
2022-09-23T00:40:06.402Z,6.00
2022-09-23T00:41:06.323Z,4.40
2022-09-23T00:42:06.316Z,4.00
2022-09-23T00:43:06.321Z,4.00
2022-09-23T00:44:06.604Z,5.90
2022-09-23T00:45:06.286Z,4.50
2022-09-23T00:46:06.402Z,4.40
2022-09-23T00:47:06.272Z,3.70
2022-09-23T00:48:06.305Z,4.70
2022-09-23T00:49:06.589Z,3.80
2022-09-23T00:50:06.270Z,4.00
2022-09-23T00:51:06.251Z,5.10
2022-09-23T00:52:06.245Z,4.70
2022-09-23T00:53:06.259Z,6.10
2022-09-23T00:54:06.438Z,3.80
2022-09-23T00:55:06.270Z,4.60
2022-09-23T00:56:06.221Z,4.10
2022-09-23T00:57:06.219Z,7.70
2022-09-23T00:58:06.204Z,5.90
2022-09-23T00:59:06.206Z,3.70
2022-09-23T01:00:06.366Z,4.40
2022-09-23T01:01:06.271Z,4.00
2022-09-23T01:02:06.207Z,5.60
2022-09-23T01:03:06.171Z,6.80
2022-09-23T01:04:06.179Z,7.60
2022-09-23T01:05:06.166Z,3.90
2022-09-23T01:06:06.586Z,4.70
2022-09-23T01:07:06.172Z,4.70
2022-09-23T01:08:06.146Z,3.50
2022-09-23T01:09:06.287Z,4.90
2022-09-23T01:10:06.141Z,4.20
2022-09-23T01:11:06.133Z,7.90
2022-09-23T01:12:06.141Z,7.00
2022-09-23T01:13:06.112Z,5.40
2022-09-23T01:14:06.119Z,6.20
2022-09-23T01:15:06.097Z,4.90
2022-09-23T01:16:06.577Z,4.10
2022-09-23T01:17:06.174Z,6.10
2022-09-23T01:18:06.361Z,6.40
2022-09-23T01:19:06.081Z,2.90
2022-09-23T01:20:06.066Z,3.70
2022-09-23T01:21:06.060Z,4.50
2022-09-23T01:22:07.164Z,3.60
2022-09-23T01:23:06.043Z,3.80
2022-09-23T01:24:06.171Z,7.00
2022-09-23T01:25:06.062Z,5.20
2022-09-23T01:26:06.024Z,4.70
2022-09-23T01:27:06.020Z,4.90
2022-09-23T01:28:06.015Z,3.60
2022-09-23T01:29:06.009Z,4.00
2022-09-23T01:30:06.010Z,4.20
2022-09-23T01:31:06.088Z,5.70
2022-09-23T01:32:05.983Z,5.10
2022-09-23T01:33:05.976Z,5.90
2022-09-23T01:34:06.020Z,5.90
2022-09-23T01:35:07.088Z,5.70
2022-09-23T01:36:05.967Z,6.90
2022-09-23T01:37:05.957Z,4.70
2022-09-23T01:38:05.945Z,5.40
2022-09-23T01:39:06.000Z,5.80
2022-09-23T01:40:06.862Z,4.50
2022-09-23T01:41:05.965Z,5.10
2022-09-23T01:42:06.368Z,5.70
2022-09-23T01:43:06.055Z,4.00
2022-09-23T01:44:05.913Z,4.60
2022-09-23T01:45:05.974Z,6.30
2022-09-23T01:46:05.907Z,5.50
2022-09-23T01:47:05.881Z,4.00
2022-09-23T01:48:05.981Z,5.20
2022-09-23T01:49:05.978Z,5.20
2022-09-23T01:50:05.861Z,6.20
2022-09-23T01:51:05.859Z,6.90
2022-09-23T01:52:05.855Z,5.70
2022-09-23T01:53:05.852Z,6.70
2022-09-23T01:54:05.863Z,8.20
2022-09-23T01:55:05.837Z,7.50
2022-09-23T01:56:05.824Z,7.20
2022-09-23T01:57:05.833Z,5.60
2022-09-23T01:58:05.808Z,5.80
2022-09-23T01:59:06.256Z,6.50
2022-09-23T02:00:05.790Z,5.90
2022-09-23T02:01:06.005Z,10.50
2022-09-23T02:02:05.876Z,6.20
2022-09-23T02:03:05.780Z,7.30
2022-09-23T02:04:05.921Z,7.10
2022-09-23T02:05:05.768Z,6.00
2022-09-23T02:06:05.763Z,6.50
2022-09-23T02:07:05.758Z,7.50
2022-09-23T02:08:06.326Z,5.10
2022-09-23T02:09:05.742Z,9.50
2022-09-23T02:10:13.320Z,6.80
2022-09-23T02:11:05.726Z,7.50
2022-09-23T02:12:05.730Z,7.90
2022-09-23T02:13:05.737Z,6.90
2022-09-23T02:14:05.723Z,6.40
2022-09-23T02:15:05.688Z,6.90
2022-09-23T02:16:05.688Z,6.70
2022-09-23T02:17:05.682Z,8.70
2022-09-23T02:18:05.675Z,6.40
2022-09-23T02:19:05.718Z,6.30
2022-09-23T02:20:05.680Z,5.60
2022-09-23T02:21:05.664Z,6.40
2022-09-23T02:22:06.065Z,5.70
2022-09-23T02:23:05.635Z,8.40
2022-09-23T02:24:05.648Z,4.80
2022-09-23T02:25:05.622Z,4.80
2022-09-23T02:26:05.652Z,5.40
2022-09-23T02:27:05.622Z,6.30
2022-09-23T02:28:05.608Z,5.00
2022-09-23T02:29:05.938Z,5.30
2022-09-23T02:30:05.590Z,5.90
2022-09-23T02:31:05.590Z,6.90
2022-09-23T02:32:05.640Z,5.60
2022-09-23T02:33:05.578Z,6.30
2022-09-23T02:34:05.590Z,7.70
2022-09-23T02:35:05.568Z,5.80
2022-09-23T02:36:05.561Z,5.90
2022-09-23T02:37:05.547Z,6.80
2022-09-23T02:38:05.542Z,8.10
2022-09-23T02:39:05.540Z,7.00
2022-09-23T02:40:05.588Z,7.20
2022-09-23T02:41:05.545Z,6.00
2022-09-23T02:42:05.524Z,7.00
2022-09-23T02:43:05.518Z,7.40
2022-09-23T02:44:05.506Z,6.70
2022-09-23T02:45:05.541Z,8.60
2022-09-23T02:46:05.539Z,7.30
2022-09-23T02:47:05.513Z,7.00
2022-09-23T02:48:05.475Z,7.10
2022-09-23T02:49:05.463Z,8.60
2022-09-23T02:50:05.467Z,8.50
2022-09-23T02:51:05.492Z,6.50
2022-09-23T02:52:05.474Z,5.40
2022-09-23T02:53:05.446Z,7.00
2022-09-23T02:54:05.498Z,7.60
2022-09-23T02:55:05.440Z,8.20
2022-09-23T02:56:05.426Z,6.40
2022-09-23T02:57:05.437Z,6.10
2022-09-23T02:58:05.415Z,6.70
2022-09-23T02:59:05.449Z,6.30
2022-09-23T03:00:05.407Z,6.00
2022-09-23T03:01:05.455Z,7.80
2022-09-23T03:02:05.589Z,5.40
2022-09-23T03:03:05.434Z,5.30
2022-09-23T03:04:05.368Z,9.70
2022-09-23T03:05:05.377Z,6.90
2022-09-23T03:06:05.361Z,5.90
2022-09-23T03:07:05.346Z,7.10
2022-09-23T03:08:05.373Z,5.50
2022-09-23T03:09:05.580Z,7.40
2022-09-23T03:10:05.327Z,7.10
2022-09-23T03:11:05.338Z,6.50
2022-09-23T03:12:05.318Z,7.00
2022-09-23T03:13:05.315Z,15.90
2022-09-23T03:14:05.749Z,7.80
2022-09-23T03:15:05.293Z,13.20
2022-09-23T03:16:05.395Z,8.10
2022-09-23T03:17:05.325Z,7.00
2022-09-23T03:18:05.583Z,7.30
2022-09-23T03:19:05.274Z,7.80
2022-09-23T03:20:06.061Z,8.90
2022-09-23T03:21:05.252Z,7.80
2022-09-23T03:22:05.252Z,6.00
2022-09-23T03:23:05.244Z,7.00
2022-09-23T03:24:05.311Z,6.70
2022-09-23T03:25:05.251Z,7.60
2022-09-23T03:26:05.231Z,5.90
2022-09-23T03:27:05.211Z,5.20
2022-09-23T03:28:05.212Z,5.40
2022-09-23T03:29:05.198Z,4.90
2022-09-23T03:30:05.251Z,4.80
2022-09-23T03:31:05.762Z,5.50
2022-09-23T03:32:05.233Z,5.10
2022-09-23T03:33:05.215Z,7.80
2022-09-23T03:34:05.167Z,5.90
2022-09-23T03:35:05.193Z,6.90
2022-09-23T03:36:05.156Z,8.80
2022-09-23T03:37:05.196Z,7.60
2022-09-23T03:38:05.149Z,6.60
2022-09-23T03:39:05.273Z,7.10
2022-09-23T03:40:06.421Z,7.30
2022-09-23T03:41:05.124Z,7.50
2022-09-23T03:42:05.114Z,7.10
2022-09-23T03:43:05.146Z,8.70
2022-09-23T03:44:05.105Z,7.50
2022-09-23T03:45:05.101Z,7.20
2022-09-23T03:46:05.868Z,9.80
2022-09-23T03:47:05.079Z,6.60
2022-09-23T03:48:05.073Z,7.50
2022-09-23T03:49:05.190Z,10.00
2022-09-23T03:50:05.067Z,8.80
2022-09-23T03:51:05.241Z,6.90
2022-09-23T03:52:05.054Z,7.00
2022-09-23T03:53:05.121Z,7.20
2022-09-23T03:54:05.036Z,8.30
2022-09-23T03:55:05.042Z,9.80
2022-09-23T03:56:05.026Z,6.80
2022-09-23T03:57:05.120Z,7.20
2022-09-23T03:58:05.024Z,6.40
2022-09-23T03:59:05.046Z,5.60
2022-09-23T04:00:05.009Z,5.70
2022-09-23T04:01:05.178Z,5.20
2022-09-23T04:02:05.118Z,7.50
2022-09-23T04:03:09.505Z,5.10
2022-09-23T04:04:06.545Z,5.40
2022-09-23T04:05:04.993Z,6.60
2022-09-23T04:06:04.961Z,5.70
2022-09-23T04:07:04.952Z,6.10
2022-09-23T04:08:05.400Z,6.70
2022-09-23T04:09:04.951Z,59.40
2022-09-23T04:10:05.056Z,141.40
2022-09-23T04:11:04.927Z,36.10
2022-09-23T04:12:04.922Z,52.60
2022-09-23T04:13:04.937Z,48.90
2022-09-23T04:14:04.919Z,23.40
2022-09-23T04:15:04.899Z,22.20
2022-09-23T04:16:04.968Z,23.80
2022-09-23T04:17:05.333Z,7.40
2022-09-23T04:18:06.030Z,12.30
2022-09-23T04:19:05.195Z,11.40
2022-09-23T04:20:04.872Z,6.50
2022-09-23T04:21:04.894Z,6.10
2022-09-23T04:22:05.335Z,6.20
2022-09-23T04:23:04.851Z,6.60
2022-09-23T04:24:04.843Z,6.00
2022-09-23T04:25:04.904Z,6.10
2022-09-23T04:26:04.838Z,6.20
2022-09-23T04:27:04.819Z,5.00
2022-09-23T04:28:04.838Z,5.10
2022-09-23T04:29:04.808Z,6.50
2022-09-23T04:30:05.051Z,5.20
2022-09-23T04:31:04.837Z,6.10
2022-09-23T04:32:04.801Z,8.90
2022-09-23T04:33:04.941Z,7.40
2022-09-23T04:34:04.804Z,6.10
2022-09-23T04:35:04.791Z,7.20
2022-09-23T04:36:05.043Z,8.00
2022-09-23T04:37:04.786Z,10.70
2022-09-23T04:38:04.771Z,7.30
2022-09-23T04:39:04.740Z,9.90
2022-09-23T04:40:04.841Z,9.40
2022-09-23T04:41:04.731Z,7.90
2022-09-23T04:42:04.729Z,7.50
2022-09-23T04:43:04.760Z,9.50
2022-09-23T04:44:04.715Z,7.10
2022-09-23T04:45:04.719Z,7.90
2022-09-23T04:46:04.948Z,7.80
2022-09-23T04:47:04.778Z,8.50
2022-09-23T04:48:04.705Z,19.10
2022-09-23T04:49:04.705Z,62.70
2022-09-23T04:50:04.669Z,10.50
2022-09-23T04:51:04.672Z,31.80
2022-09-23T04:52:05.121Z,105.40
2022-09-23T04:53:04.674Z,32.90
2022-09-23T04:54:04.667Z,253.90
2022-09-23T04:55:09.135Z,86.40
2022-09-23T04:56:05.650Z,12.50
2022-09-23T04:57:04.626Z,5.90
2022-09-23T04:58:04.645Z,29.20
2022-09-23T04:59:04.647Z,122.90
2022-09-23T05:00:04.628Z,600.60
2022-09-23T05:01:05.479Z,382.90
2022-09-23T05:02:05.123Z,74.50
2022-09-23T05:03:04.597Z,51.20
2022-09-23T05:04:04.577Z,11.30
2022-09-23T05:05:04.588Z,8.40
2022-09-23T05:06:04.568Z,7.70
2022-09-23T05:07:04.551Z,7.80
2022-09-23T05:08:04.569Z,6.80
2022-09-23T05:09:04.562Z,7.70
2022-09-23T05:10:05.224Z,9.70
2022-09-23T05:11:04.532Z,9.00
2022-09-23T05:12:05.531Z,6.80
2022-09-23T05:13:04.520Z,8.40
2022-09-23T05:14:04.517Z,6.00
2022-09-23T05:15:04.529Z,5.50
2022-09-23T05:16:04.604Z,8.30
2022-09-23T05:17:05.835Z,7.60
2022-09-23T05:18:04.505Z,8.20
2022-09-23T05:19:04.476Z,7.80
2022-09-23T05:20:04.482Z,6.30
2022-09-23T05:21:04.473Z,6.60
2022-09-23T05:22:04.475Z,8.30
2022-09-23T05:23:04.508Z,7.10
2022-09-23T05:24:04.600Z,8.00
2022-09-23T05:25:04.469Z,14.30
2022-09-23T05:26:04.430Z,7.80
2022-09-23T05:27:04.430Z,7.50
2022-09-23T05:28:04.418Z,7.50
2022-09-23T05:29:04.458Z,7.70
2022-09-23T05:30:04.439Z,8.80
2022-09-23T05:31:04.502Z,6.90
2022-09-23T05:32:04.526Z,4.80
2022-09-23T05:33:04.394Z,5.00
2022-09-23T05:34:04.380Z,6.00
2022-09-23T05:35:04.386Z,9.00
2022-09-23T05:36:04.369Z,39.00
2022-09-23T05:37:04.363Z,45.10
2022-09-23T05:38:04.373Z,112.70
2022-09-23T05:39:04.354Z,32.80
2022-09-23T05:40:04.434Z,17.20
2022-09-23T05:41:04.359Z,280.50
2022-09-23T05:42:04.378Z,243.10
2022-09-23T05:43:04.327Z,157.00
2022-09-23T05:44:04.334Z,35.80
2022-09-23T05:45:04.317Z,10.90
2022-09-23T05:46:08.006Z,8.80
2022-09-23T05:47:04.352Z,6.10
2022-09-23T05:48:04.314Z,22.00
2022-09-23T05:49:04.536Z,6.40
2022-09-23T05:50:04.914Z,16.00
2022-09-23T05:51:04.328Z,8.20
2022-09-23T05:52:04.275Z,9.90
2022-09-23T05:53:04.264Z,5.50
2022-09-23T05:54:04.541Z,17.70
2022-09-23T05:55:04.329Z,122.60
2022-09-23T05:57:05.084Z,197.80
2022-09-23T05:58:04.633Z,488.40
2022-09-23T05:59:04.224Z,266.50
2022-09-23T06:00:04.206Z,225.30
2022-09-23T06:01:04.209Z,130.30
2022-09-23T06:02:04.289Z,26.70
2022-09-23T06:03:04.238Z,142.30
2022-09-23T06:04:04.203Z,227.40
2022-09-23T06:05:04.184Z,51.70
2022-09-23T06:06:04.189Z,148.90
2022-09-23T06:07:04.194Z,113.20
2022-09-23T06:08:04.172Z,16.60
2022-09-23T06:09:04.869Z,31.30
2022-09-23T06:10:04.168Z,20.50
2022-09-23T06:11:04.142Z,15.00
2022-09-23T06:12:04.134Z,20.10
2022-09-23T06:13:04.168Z,16.90
2022-09-23T06:14:04.294Z,14.50
2022-09-23T06:15:04.139Z,8.60
2022-09-23T06:16:05.390Z,5.90
2022-09-23T06:17:04.095Z,5.80
2022-09-23T06:18:04.144Z,6.10
2022-09-23T06:19:05.601Z,5.60
2022-09-23T06:20:04.082Z,6.10
2022-09-23T06:21:04.074Z,7.80
2022-09-23T06:22:04.087Z,5.00
2022-09-23T06:23:07.265Z,4.50
2022-09-23T06:24:05.257Z,4.10
2022-09-23T06:25:04.049Z,4.40
2022-09-23T06:26:04.149Z,4.90
2022-09-23T06:27:04.049Z,5.30
2022-09-23T06:28:04.066Z,3.90
2022-09-23T06:29:04.039Z,4.00
2022-09-23T06:30:04.020Z,3.60
2022-09-23T06:31:04.055Z,3.50
2022-09-23T06:32:04.422Z,3.50
2022-09-23T06:33:03.998Z,3.50
2022-09-23T06:34:11.817Z,3.40
2022-09-23T06:35:05.013Z,4.20
2022-09-23T06:36:03.971Z,11.60
2022-09-23T06:37:16.271Z,8.80
2022-09-23T06:38:04.952Z,4.80
2022-09-23T06:39:03.945Z,4.30
2022-09-23T06:40:04.038Z,4.10
2022-09-23T06:41:03.934Z,3.50
2022-09-23T06:42:03.920Z,3.50
2022-09-23T06:43:03.976Z,3.70
2022-09-23T06:44:03.915Z,3.40
2022-09-23T06:45:03.947Z,4.90
2022-09-23T06:46:04.112Z,3.40
2022-09-23T06:47:03.917Z,3.20
2022-09-23T06:48:03.903Z,3.30
2022-09-23T06:49:03.919Z,3.30
2022-09-23T06:50:03.878Z,3.60
2022-09-23T06:51:03.858Z,4.00
2022-09-23T06:52:03.860Z,4.50
2022-09-23T06:53:03.853Z,5.10
2022-09-23T06:54:03.842Z,4.20
2022-09-23T06:55:03.851Z,3.60
2022-09-23T06:56:03.822Z,4.40
2022-09-23T06:57:03.817Z,3.10
2022-09-23T06:58:03.816Z,2.90
2022-09-23T06:59:03.830Z,4.30
2022-09-23T07:00:03.797Z,3.40
2022-09-23T07:01:03.834Z,4.60
2022-09-23T07:02:03.884Z,3.00
2022-09-23T07:03:03.864Z,3.00
2022-09-23T07:04:03.777Z,3.20
2022-09-23T07:05:03.821Z,3.20
2022-09-23T07:06:03.761Z,2.80
2022-09-23T07:07:03.815Z,2.90
2022-09-23T07:08:03.746Z,3.10
2022-09-23T07:09:03.733Z,5.00
2022-09-23T07:10:03.732Z,4.10
2022-09-23T07:11:03.739Z,5.40
2022-09-23T07:12:03.730Z,4.40
2022-09-23T07:13:03.730Z,3.80
2022-09-23T07:14:03.701Z,3.90
2022-09-23T07:15:03.701Z,3.40
2022-09-23T07:16:04.178Z,3.20
2022-09-23T07:17:03.706Z,3.80
2022-09-23T07:18:03.690Z,3.20
2022-09-23T07:19:03.673Z,3.50
2022-09-23T07:20:03.683Z,3.60
2022-09-23T07:21:03.661Z,4.60
2022-09-23T07:22:03.709Z,4.80
2022-09-23T07:23:03.644Z,4.70
2022-09-23T07:24:03.642Z,3.10
2022-09-23T07:25:03.632Z,5.40
2022-09-23T07:26:03.644Z,4.60
2022-09-23T07:27:03.614Z,4.20
2022-09-23T07:28:03.640Z,3.70
2022-09-23T07:29:03.605Z,3.70
2022-09-23T07:30:03.658Z,4.50
2022-09-23T07:31:03.627Z,3.30
2022-09-23T07:32:13.319Z,5.30
2022-09-23T07:33:14.645Z,3.70
2022-09-23T07:34:04.659Z,4.20
2022-09-23T07:35:03.579Z,3.80
2022-09-23T07:36:03.549Z,3.90
2022-09-23T07:37:03.704Z,3.90
2022-09-23T07:38:03.544Z,5.30
2022-09-23T07:39:03.595Z,4.30
2022-09-23T07:40:03.648Z,7.80
2022-09-23T07:41:03.515Z,4.50
2022-09-23T07:42:03.562Z,3.60
2022-09-23T07:43:03.506Z,3.90
2022-09-23T07:44:03.506Z,4.80
2022-09-23T07:45:03.478Z,4.60
2022-09-23T07:46:03.622Z,4.00
2022-09-23T07:47:03.501Z,4.40
2022-09-23T07:48:03.459Z,6.70
2022-09-23T07:49:03.475Z,6.30
2022-09-23T07:50:03.456Z,4.40
2022-09-23T07:51:03.433Z,4.60
2022-09-23T07:52:03.765Z,5.90
2022-09-23T07:53:03.435Z,4.60
2022-09-23T07:54:03.428Z,5.50
2022-09-23T07:55:03.420Z,3.20
2022-09-23T07:56:03.412Z,7.60
2022-09-23T07:57:03.414Z,3.70
2022-09-23T07:58:03.402Z,4.20
2022-09-23T07:59:03.494Z,4.90
2022-09-23T08:00:03.384Z,5.30
2022-09-23T08:01:03.380Z,5.20
2022-09-23T08:02:03.420Z,3.50
2022-09-23T08:03:03.441Z,4.10
2022-09-23T08:04:03.373Z,5.00
2022-09-23T08:05:03.486Z,3.60
2022-09-23T08:06:03.340Z,4.40
2022-09-23T08:07:03.395Z,3.60
2022-09-23T08:08:03.317Z,4.70
2022-09-23T08:09:03.393Z,6.10
2022-09-23T08:10:03.327Z,5.80
2022-09-23T08:11:10.360Z,5.50
2022-09-23T08:12:03.298Z,4.40
2022-09-23T08:13:03.336Z,5.00
2022-09-23T08:14:03.300Z,5.00
2022-09-23T08:15:03.277Z,3.50
2022-09-23T08:16:03.351Z,3.20
2022-09-23T08:17:03.264Z,4.90
2022-09-23T08:18:03.265Z,4.60
2022-09-23T08:20:03.247Z,3.90
2022-09-23T08:21:03.268Z,3.30
2022-09-23T08:22:03.244Z,3.00
2022-09-23T08:23:03.464Z,4.40
2022-09-23T08:24:03.353Z,3.80
2022-09-23T08:25:03.711Z,3.50
2022-09-23T08:26:03.206Z,5.40
2022-09-23T08:27:03.193Z,4.30
2022-09-23T08:28:03.240Z,3.90
2022-09-23T08:29:03.184Z,6.60
2022-09-23T08:30:03.172Z,4.10
2022-09-23T08:31:03.315Z,5.20
2022-09-23T08:32:03.162Z,3.00
2022-09-23T08:33:03.163Z,4.00
2022-09-23T08:34:03.308Z,4.20
2022-09-23T08:35:03.176Z,3.00
2022-09-23T08:36:03.575Z,3.20
2022-09-23T08:37:03.192Z,4.40
2022-09-23T08:38:03.180Z,26.90
2022-09-23T08:39:03.115Z,8.60
2022-09-23T08:40:03.110Z,8.60
2022-09-23T08:41:03.132Z,2.50
2022-09-23T08:42:03.087Z,9.50
2022-09-23T08:43:03.091Z,5.10
2022-09-23T08:44:03.215Z,4.90
2022-09-23T08:45:03.081Z,3.20
2022-09-23T08:46:03.117Z,2.90
2022-09-23T08:47:03.094Z,3.60
2022-09-23T08:48:03.054Z,3.10
2022-09-23T08:49:03.060Z,3.10
2022-09-23T08:50:03.087Z,5.20
2022-09-23T08:51:03.033Z,5.10
2022-09-23T08:52:03.057Z,7.30
2022-09-23T08:53:03.048Z,5.20
2022-09-23T08:54:03.102Z,5.40
2022-09-23T08:55:03.014Z,5.60
2022-09-23T08:56:03.000Z,6.10
2022-09-23T08:57:03.019Z,6.10
2022-09-23T08:58:26.759Z,3.00
2022-09-23T08:59:03.985Z,3.40
2022-09-23T09:00:02.985Z,3.30
2022-09-23T09:01:03.013Z,8.10
2022-09-23T09:02:02.970Z,5.00
2022-09-23T09:03:02.991Z,35.30
2022-09-23T09:04:23.954Z,6.50
2022-09-23T09:05:02.943Z,21.50
2022-09-23T09:06:02.960Z,10.10
2022-09-23T09:07:24.676Z,4.00
2022-09-23T09:08:04.005Z,4.60
2022-09-23T09:09:03.018Z,4.80
2022-09-23T09:10:02.914Z,3.00
2022-09-23T09:11:02.903Z,4.10
2022-09-23T09:12:03.329Z,3.60
2022-09-23T09:13:02.890Z,3.60
2022-09-23T09:14:02.910Z,2.60
2022-09-23T09:15:02.886Z,4.30
2022-09-23T09:16:02.926Z,6.70
2022-09-23T09:17:02.941Z,2.90
2022-09-23T09:18:02.887Z,3.80
2022-09-23T09:19:02.911Z,3.30
2022-09-23T09:20:02.859Z,4.00
2022-09-23T09:21:03.175Z,3.80
2022-09-23T09:22:02.824Z,3.00
2022-09-23T09:23:02.825Z,3.40
2022-09-23T09:24:02.938Z,2.90
2022-09-23T09:25:02.945Z,3.20
2022-09-23T09:26:02.805Z,4.30
2022-09-23T09:27:02.795Z,3.90
2022-09-23T09:28:02.837Z,3.00
2022-09-23T09:29:17.159Z,3.00
2022-09-23T09:30:03.780Z,2.90
2022-09-23T09:31:02.933Z,4.00
2022-09-23T09:32:02.763Z,3.80
2022-09-23T09:33:02.771Z,4.30
2022-09-23T09:34:02.788Z,5.00
2022-09-23T09:35:02.751Z,3.20
2022-09-23T09:36:02.727Z,3.10
2022-09-23T09:37:06.845Z,4.00
2022-09-23T09:38:02.810Z,4.40
2022-09-23T09:39:03.052Z,4.30
2022-09-23T09:40:02.710Z,3.00
2022-09-23T09:41:02.920Z,4.10
2022-09-23T09:42:02.687Z,6.70
2022-09-23T09:43:02.692Z,3.60
2022-09-23T09:44:02.740Z,2.80
2022-09-23T09:45:02.676Z,8.80
2022-09-23T09:46:02.660Z,9.60
2022-09-23T09:47:03.622Z,9.40
2022-09-23T09:48:02.697Z,10.50
2022-09-23T09:49:02.761Z,13.30
2022-09-23T09:50:02.628Z,4.70
2022-09-23T09:51:02.626Z,3.40
2022-09-23T09:52:02.777Z,6.20
2022-09-23T09:53:02.585Z,7.70
2022-09-23T09:54:02.559Z,4.00
2022-09-23T09:55:02.596Z,4.50
2022-09-23T09:56:05.310Z,4.10
2022-09-23T09:57:02.562Z,5.20
2022-09-23T09:58:02.607Z,4.30
2022-09-23T09:59:02.572Z,3.50
2022-09-23T10:00:02.797Z,4.50
2022-09-23T10:01:02.550Z,5.20
2022-09-23T10:02:02.484Z,3.00
2022-09-23T10:03:02.478Z,4.30
2022-09-23T10:04:02.464Z,3.10
2022-09-23T10:05:02.470Z,6.10
2022-09-23T10:06:03.099Z,4.60
2022-09-23T10:07:02.440Z,2.90
2022-09-23T10:08:02.449Z,4.80
2022-09-23T10:09:02.479Z,3.10
2022-09-23T10:10:15.915Z,3.60
2022-09-23T10:11:04.799Z,5.50
2022-09-23T10:12:02.415Z,11.20
2022-09-23T10:13:02.430Z,12.90
2022-09-23T10:14:02.396Z,4.60
2022-09-23T10:15:02.420Z,44.10
2022-09-23T10:16:02.378Z,4.30
2022-09-23T10:17:03.129Z,2.70
2022-09-23T10:18:02.382Z,6.30
2022-09-23T10:19:02.412Z,3.60
2022-09-23T10:20:02.365Z,5.40
2022-09-23T10:21:02.354Z,4.60
2022-09-23T10:22:02.343Z,3.70
2022-09-23T10:23:02.372Z,4.80
2022-09-23T10:24:02.325Z,2.80
2022-09-23T10:25:02.330Z,2.40
2022-09-23T10:26:02.320Z,3.10
2022-09-23T10:27:02.307Z,4.90
2022-09-23T10:28:06.080Z,5.70
2022-09-23T10:29:04.416Z,4.20
2022-09-23T10:30:02.288Z,7.70
2022-09-23T10:31:02.363Z,4.30
2022-09-23T10:32:02.275Z,2.50
2022-09-23T10:33:02.276Z,4.60
2022-09-23T10:34:02.267Z,2.70
2022-09-23T10:35:02.901Z,3.20
2022-09-23T10:36:02.276Z,2.90
2022-09-23T10:37:02.237Z,4.90
2022-09-23T10:38:02.246Z,3.50
2022-09-23T10:39:02.364Z,3.90
2022-09-23T10:40:02.222Z,2.30
2022-09-23T10:41:03.070Z,3.20
2022-09-23T10:42:02.218Z,5.20
2022-09-23T10:43:02.205Z,2.50
2022-09-23T10:44:02.195Z,3.30
2022-09-23T10:45:02.258Z,3.10
2022-09-23T10:46:02.247Z,3.60
2022-09-23T10:47:02.605Z,3.40
2022-09-23T10:48:02.167Z,4.60
2022-09-23T10:49:02.158Z,4.50
2022-09-23T10:50:02.148Z,3.30
2022-09-23T10:51:02.149Z,4.70
2022-09-23T10:52:02.403Z,2.20
2022-09-23T10:53:02.141Z,2.30
2022-09-23T10:54:02.133Z,3.80
2022-09-23T10:55:02.122Z,15.60
2022-09-23T10:56:02.109Z,2.70
2022-09-23T10:57:02.136Z,2.90
2022-09-23T10:58:02.132Z,2.50
2022-09-23T10:59:02.113Z,2.40
2022-09-23T11:00:02.089Z,3.80
2022-09-23T11:01:02.143Z,2.40
2022-09-23T11:02:02.121Z,4.60
2022-09-23T11:03:02.957Z,3.10
2022-09-23T11:04:02.181Z,3.10
2022-09-23T11:05:02.110Z,4.50
2022-09-23T11:06:02.848Z,2.60
2022-09-23T11:07:02.027Z,3.30
2022-09-23T11:08:02.028Z,2.50
2022-09-23T11:09:02.013Z,3.20
2022-09-23T11:10:02.030Z,2.60
2022-09-23T11:11:02.011Z,2.90
2022-09-23T11:12:02.013Z,2.30
2022-09-23T11:13:01.986Z,2.40
2022-09-23T11:14:02.019Z,2.10
2022-09-23T11:15:02.013Z,3.60
2022-09-23T11:16:02.091Z,1.90
2022-09-23T11:17:02.043Z,3.60
2022-09-23T11:18:02.959Z,2.90
2022-09-23T11:19:01.973Z,2.40
2022-09-23T11:20:01.941Z,5.50
2022-09-23T11:21:02.607Z,1.90
2022-09-23T11:22:02.404Z,4.90
2022-09-23T11:23:01.923Z,2.90
2022-09-23T11:24:02.018Z,3.50
2022-09-23T11:25:01.912Z,3.30
2022-09-23T11:26:01.901Z,2.40
2022-09-23T11:27:01.909Z,5.10
2022-09-23T11:28:01.890Z,2.90
2022-09-23T11:29:02.157Z,2.10
2022-09-23T11:30:01.870Z,2.30
2022-09-23T11:31:02.544Z,2.80
2022-09-23T11:32:01.871Z,2.60
2022-09-23T11:34:01.858Z,3.20
2022-09-23T11:35:01.850Z,1.90
2022-09-23T11:36:01.839Z,2.20
2022-09-23T11:37:01.838Z,3.20
2022-09-23T11:38:01.864Z,1.80
2022-09-23T11:39:02.260Z,1.80
2022-09-23T11:40:01.809Z,2.90
2022-09-23T11:41:01.873Z,2.40
2022-09-23T11:42:01.801Z,2.90
2022-09-23T11:43:01.826Z,2.40
2022-09-23T11:44:01.837Z,3.60
2022-09-23T11:45:02.014Z,2.10
2022-09-23T11:46:01.829Z,2.50
2022-09-23T11:47:01.775Z,4.00
2022-09-23T11:48:02.030Z,2.10
2022-09-23T11:49:01.779Z,3.60
2022-09-23T11:50:01.758Z,4.00
2022-09-23T11:51:01.751Z,2.50
2022-09-23T11:52:01.757Z,3.60
2022-09-23T11:53:01.727Z,2.70
2022-09-23T11:54:02.530Z,4.50
2022-09-23T11:55:04.758Z,4.30
2022-09-23T11:56:02.718Z,5.50
2022-09-23T11:57:01.701Z,3.20
2022-09-23T11:58:01.810Z,3.30
2022-09-23T11:59:01.763Z,6.30
2022-09-23T12:00:01.727Z,2.30
2022-09-23T12:01:01.739Z,2.90
2022-09-23T12:02:13.073Z,3.50
2022-09-23T12:03:05.995Z,5.40
2022-09-23T12:04:13.498Z,3.10
2022-09-23T12:05:03.807Z,2.80
2022-09-23T12:06:01.820Z,4.10
2022-09-23T12:07:01.667Z,3.20
2022-09-23T12:08:01.632Z,2.50
2022-09-23T12:09:01.631Z,2.50
2022-09-23T12:10:01.631Z,4.30
2022-09-23T12:11:01.779Z,3.30
2022-09-23T12:12:01.603Z,2.70
2022-09-23T12:13:01.592Z,3.10
2022-09-23T12:14:01.590Z,2.70
2022-09-23T12:15:01.613Z,3.70
2022-09-23T12:16:01.573Z,2.60
2022-09-23T12:17:01.685Z,2.90
2022-09-23T12:18:01.559Z,3.10
2022-09-23T12:19:01.549Z,3.90
2022-09-23T12:20:01.566Z,3.30
2022-09-23T12:21:02.000Z,2.70
2022-09-23T12:22:01.528Z,2.60
2022-09-23T12:23:01.530Z,2.30
2022-09-23T12:24:01.513Z,2.50
2022-09-23T12:25:01.510Z,3.40
2022-09-23T12:26:01.521Z,2.70
2022-09-23T12:27:01.518Z,2.40
2022-09-23T12:28:01.492Z,2.00
2022-09-23T12:29:01.483Z,2.80
2022-09-23T12:30:01.474Z,2.10
2022-09-23T12:31:01.576Z,3.30
2022-09-23T12:32:01.472Z,3.80
2022-09-23T12:33:01.538Z,2.50
2022-09-23T12:34:01.595Z,2.80
2022-09-23T12:35:01.437Z,2.80
2022-09-23T12:36:01.504Z,3.20
2022-09-23T12:37:01.558Z,3.50
2022-09-23T12:38:01.416Z,3.10
2022-09-23T12:39:01.474Z,2.70
2022-09-23T12:40:01.413Z,2.80
2022-09-23T12:41:01.389Z,3.10
2022-09-23T12:42:01.391Z,2.80
2022-09-23T12:43:02.258Z,3.80
2022-09-23T12:44:01.374Z,2.50
2022-09-23T12:45:01.382Z,3.10
2022-09-23T12:46:02.700Z,2.70
2022-09-23T12:47:01.513Z,2.80
2022-09-23T12:48:01.349Z,3.50
2022-09-23T12:49:01.366Z,3.40
2022-09-23T12:50:01.350Z,2.40
2022-09-23T12:51:01.327Z,2.90
2022-09-23T12:52:01.315Z,4.70
2022-09-23T12:53:01.352Z,2.70
2022-09-23T12:54:01.412Z,3.50
2022-09-23T12:55:01.342Z,2.50
2022-09-23T12:56:01.292Z,2.10
2022-09-23T12:57:01.312Z,2.00
2022-09-23T12:58:01.290Z,1.70
2022-09-23T12:59:01.282Z,3.60
2022-09-23T13:00:01.257Z,2.10
2022-09-23T13:01:01.442Z,1.60
2022-09-23T13:02:01.449Z,1.80
2022-09-23T13:03:01.628Z,4.10
2022-09-23T13:04:01.236Z,1.70
2022-09-23T13:05:01.221Z,3.60
2022-09-23T13:06:01.221Z,2.50
2022-09-23T13:07:01.234Z,2.40
2022-09-23T13:08:01.210Z,3.30
2022-09-23T13:09:01.257Z,2.30
2022-09-23T13:10:01.228Z,2.00
2022-09-23T13:11:01.189Z,3.00
2022-09-23T13:12:01.173Z,1.90
2022-09-23T13:13:01.165Z,1.80
2022-09-23T13:14:02.030Z,1.90
2022-09-23T13:15:01.160Z,3.10
2022-09-23T13:16:01.253Z,1.70
2022-09-23T13:17:01.230Z,1.50
2022-09-23T13:18:01.136Z,2.30